createdAt,value
2023-04-18T04:13:14.447Z,100153.56
2023-04-18T04:16:18.207Z,100155.87
2023-04-18T04:19:21.818Z,100155.25
2023-04-18T04:22:25.777Z,100160.94
2023-04-18T04:25:28.848Z,100167.47
2023-04-18T04:28:32.216Z,100171.38
2023-04-18T04:31:35.977Z,100181.28
2023-04-18T04:34:41.285Z,100175.09
2023-04-18T04:37:45.228Z,100173.38
2023-04-18T04:40:49.755Z,100178.00
2023-04-18T04:43:53.933Z,100178.75
2023-04-18T04:46:57.768Z,100180.47
2023-04-18T04:50:01.153Z,100181.28
2023-04-18T04:53:07.451Z,100182.91
2023-04-18T04:56:10.145Z,100188.91
2023-04-18T04:59:14.868Z,100188.75
2023-04-18T05:02:17.761Z,100187.06
2023-04-18T05:05:20.694Z,100195.06
2023-04-18T05:08:23.286Z,100191.41
2023-04-18T05:11:26.397Z,100192.06
2023-04-18T05:14:28.938Z,100193.06
2023-04-18T05:17:31.811Z,100194.41
2023-04-18T05:20:34.519Z,100195.22
2023-04-18T05:23:37.431Z,100199.75
2023-04-18T05:26:40.215Z,100198.28
2023-04-18T05:29:43.072Z,100202.03
2023-04-18T05:32:46.170Z,100209.28
2023-04-18T05:35:49.050Z,100208.78
2023-04-18T05:38:51.703Z,100204.06
2023-04-18T05:41:54.676Z,100209.56
2023-04-18T05:44:57.328Z,100209.66
2023-04-18T05:48:00.554Z,100205.31
2023-04-18T05:51:03.317Z,100205.09
2023-04-18T05:54:06.268Z,100210.06
2023-04-18T05:57:08.842Z,100215.47
2023-04-18T06:00:12.746Z,100209.38
2023-04-18T06:03:16.013Z,100211.69
2023-04-18T06:06:19.026Z,100215.44
2023-04-18T06:09:21.969Z,100217.25
2023-04-18T06:12:24.695Z,100210.13
2023-04-18T06:15:27.542Z,100215.88
2023-04-18T06:18:30.418Z,100222.72
2023-04-18T06:21:33.529Z,100222.72
2023-04-18T06:24:37.392Z,100224.34
2023-04-18T06:27:40.221Z,100226.56
2023-04-18T06:30:43.022Z,100229.66
2023-04-18T06:33:45.961Z,100229.06
2023-04-18T06:36:49.389Z,100226.22
2023-04-18T06:39:52.307Z,100226.66
2023-04-18T06:42:55.512Z,100233.09
2023-04-18T06:45:58.995Z,100230.69
2023-04-18T06:49:06.681Z,100238.62
2023-04-18T06:52:09.781Z,100238.62
2023-04-18T06:55:13.574Z,100243.94
2023-04-18T06:58:17.165Z,100240.41
2023-04-18T07:01:19.888Z,100240.37
2023-04-18T07:04:23.545Z,100249.44
2023-04-18T07:07:26.562Z,100248.16
2023-04-18T07:10:29.929Z,100249.25
2023-04-18T07:13:33.160Z,100250.25
2023-04-18T07:16:36.029Z,100248.09
2023-04-18T07:19:38.626Z,100249.75
2023-04-18T07:22:41.588Z,100246.44
2023-04-18T07:25:44.227Z,100248.88
2023-04-18T07:28:46.972Z,100247.59
2023-04-18T07:31:49.919Z,100261.16
2023-04-18T07:34:53.810Z,100251.72
2023-04-18T07:37:56.267Z,100255.59
2023-04-18T07:41:01.279Z,100260.13
2023-04-18T07:44:03.985Z,100264.63
2023-04-18T07:47:11.478Z,100262.44
2023-04-18T07:50:14.079Z,100263.09
2023-04-18T07:53:16.982Z,100274.97
2023-04-18T07:56:19.610Z,100273.72
2023-04-18T07:59:22.830Z,100284.81
2023-04-18T08:02:25.759Z,100278.84
2023-04-18T08:05:28.728Z,100287.19
2023-04-18T08:08:31.773Z,100279.75
2023-04-18T08:11:35.234Z,100286.38
2023-04-18T08:14:37.892Z,100281.84
2023-04-18T08:17:42.783Z,100288.00
2023-04-18T08:20:45.697Z,100285.66
2023-04-18T08:23:48.724Z,100283.59
2023-04-18T08:26:51.250Z,100281.84
2023-04-18T08:29:54.758Z,100288.66
2023-04-18T08:32:57.373Z,100285.34
2023-04-18T08:36:00.221Z,100276.69
2023-04-18T08:39:02.816Z,100284.47
2023-04-18T08:42:06.707Z,100278.53
2023-04-18T08:45:09.632Z,100289.50
2023-04-18T08:48:16.726Z,100290.81
2023-04-18T08:51:19.239Z,100294.00
2023-04-18T08:54:22.558Z,100291.44
2023-04-18T08:57:28.011Z,100293.31
2023-04-18T09:00:30.969Z,100290.38
2023-04-18T09:03:40.105Z,100300.31
2023-04-18T09:06:53.136Z,100290.00
2023-04-18T09:09:59.942Z,100292.69
2023-04-18T09:13:04.390Z,100291.50
2023-04-18T09:16:07.284Z,100302.19
2023-04-18T09:19:18.619Z,100301.50
2023-04-18T09:22:21.959Z,100303.94
2023-04-18T09:25:30.218Z,100300.84
2023-04-18T09:28:33.625Z,100300.66
2023-04-18T09:32:00.078Z,100305.63
2023-04-18T09:35:05.436Z,100300.06
2023-04-18T09:38:08.784Z,100291.50
2023-04-18T09:41:12.561Z,100288.34
2023-04-18T09:44:17.216Z,100292.91
2023-04-18T09:47:20.173Z,100294.25
2023-04-18T09:50:22.993Z,100289.19
2023-04-18T09:53:26.738Z,100288.66
2023-04-18T09:56:32.030Z,100282.62
2023-04-18T10:00:14.341Z,100276.22
2023-04-18T10:03:19.140Z,100282.44
2023-04-18T10:06:22.136Z,100283.00
2023-04-18T10:09:25.149Z,100269.16
2023-04-18T10:12:27.970Z,100281.06
2023-04-18T10:15:32.097Z,100270.22
2023-04-18T10:18:36.326Z,100273.81
2023-04-18T10:21:51.592Z,100275.28
2023-04-18T10:24:54.234Z,100276.53
2023-04-18T10:27:58.895Z,100288.03
2023-04-18T10:31:05.829Z,100274.91
2023-04-18T10:34:08.764Z,100280.72
2023-04-18T10:37:13.033Z,100275.00
2023-04-18T10:40:16.221Z,100280.84
2023-04-18T10:43:18.942Z,100281.59
2023-04-18T10:46:31.600Z,100276.69
2023-04-18T10:49:38.290Z,100284.13
2023-04-18T10:52:41.768Z,100278.47
2023-04-18T10:55:54.509Z,100274.22
2023-04-18T10:59:01.332Z,100276.59
2023-04-18T11:02:25.678Z,100267.37
2023-04-18T11:05:29.183Z,100264.69
2023-04-18T11:08:32.090Z,100262.91
2023-04-18T11:11:35.164Z,100262.59
2023-04-18T11:14:46.364Z,100263.09
2023-04-18T11:17:58.776Z,100265.81
2023-04-18T11:21:03.802Z,100259.97
2023-04-18T11:24:06.854Z,100262.78
2023-04-18T11:27:11.056Z,100268.31
2023-04-18T11:30:15.033Z,100269.38
2023-04-18T11:33:18.511Z,100277.06
2023-04-18T11:36:21.599Z,100275.22
2023-04-18T11:39:24.774Z,100269.31
2023-04-18T11:42:30.840Z,100269.19
2023-04-18T11:45:33.579Z,100272.00
2023-04-18T11:48:46.647Z,100271.47
2023-04-18T11:51:49.233Z,100263.81
2023-04-18T11:54:52.121Z,100266.19
2023-04-18T11:57:56.891Z,100262.69
2023-04-18T12:01:16.130Z,100266.88
2023-04-18T12:04:19.857Z,100260.81
2023-04-18T12:07:36.457Z,100259.78
2023-04-18T12:10:47.434Z,100255.78
2023-04-18T12:13:50.008Z,100260.59
2023-04-18T12:16:52.795Z,100255.28
2023-04-18T12:19:55.593Z,100262.31
2023-04-18T12:22:58.506Z,100252.72
2023-04-18T12:26:18.257Z,100252.56
2023-04-18T12:29:21.394Z,100260.09
2023-04-18T12:32:26.189Z,100260.22
2023-04-18T12:35:31.268Z,100253.06
2023-04-18T12:38:35.427Z,100254.13
2023-04-18T12:41:38.824Z,100252.97
2023-04-18T12:44:41.377Z,100257.87
2023-04-18T12:47:46.879Z,100264.63
2023-04-18T12:54:27.378Z,100265.56
2023-04-18T12:57:31.743Z,100259.31
2023-04-18T13:00:34.715Z,100264.37
2023-04-18T13:03:38.124Z,100256.28
2023-04-18T13:06:40.866Z,100256.41
2023-04-18T13:09:43.845Z,100254.47
2023-04-18T13:12:46.968Z,100254.84
2023-04-18T13:15:50.783Z,100256.69
2023-04-18T13:18:53.220Z,100252.94
2023-04-18T13:21:56.106Z,100252.97
2023-04-18T13:24:58.846Z,100254.19
2023-04-18T13:28:01.914Z,100252.84
2023-04-18T13:34:44.749Z,100262.00
2023-04-18T13:53:19.521Z,100259.50
2023-04-18T13:56:22.575Z,100267.03
2023-04-18T13:59:25.866Z,100257.06
2023-04-18T14:02:28.913Z,100266.47
2023-04-18T14:05:31.956Z,100259.00
2023-04-18T14:08:34.533Z,100250.37
2023-04-18T14:11:37.686Z,100255.53
2023-04-18T14:14:40.489Z,100264.66
2023-04-18T14:17:45.452Z,100256.59
2023-04-18T14:20:48.648Z,100254.00
2023-04-18T14:23:52.695Z,100243.16
2023-04-18T14:26:55.532Z,100243.94
2023-04-18T14:29:58.436Z,100253.97
2023-04-18T14:33:00.995Z,100252.03
2023-04-18T14:36:04.352Z,100250.75
2023-04-18T14:39:06.949Z,100242.28
2023-04-18T14:42:10.049Z,100252.38
2023-04-18T14:45:12.858Z,100251.34
2023-04-18T14:48:16.250Z,100251.97
2023-04-18T14:51:19.239Z,100249.41
2023-04-18T14:54:22.093Z,100261.13
2023-04-18T14:57:25.470Z,100253.00
2023-04-18T15:00:28.868Z,100254.06
2023-04-18T15:03:31.812Z,100260.19
2023-04-18T15:06:34.873Z,100256.63
2023-04-18T15:09:38.423Z,100262.66
2023-04-18T15:12:42.546Z,100256.88
2023-04-18T15:15:54.627Z,100253.28
2023-04-18T15:18:57.777Z,100255.88
2023-04-18T15:22:00.750Z,100247.81
2023-04-18T15:25:04.925Z,100249.50
2023-04-18T15:28:07.553Z,100258.84
2023-04-18T15:31:10.883Z,100253.00
2023-04-18T15:34:13.690Z,100246.53
2023-04-18T15:37:16.950Z,100247.19
2023-04-18T15:40:20.131Z,100248.19
